Time;durP1;ratioP1;P1;durP2;ratioP2;P2;SDS_P1;SDS_P2;PMS_P1;PMS_P2;Temp;Humidity;BMP_temperature;BMP_pressure;BME280_temperature;BME280_humidity;BME280_pressure;Samples;Min_cycle;Max_cycle;Signal;HPM_P1;HPM_P2
2021/05/19 00:01:52;;;;;;;8.20;3.75;;;358.80;2227.20;;;;;;5012706;28;20018;-77
2021/05/19 00:04:18;;;;;;;8.82;4.20;;;358.80;2227.20;;;;;;4996301;28;20026;-78
2021/05/19 00:06:44;;;;;;;11.20;3.83;;;358.80;2201.60;;;;;;4996666;28;20034;-77
2021/05/19 00:09:12;;;;;;;11.02;4.65;;;358.60;2227.20;;;;;;4975068;28;20037;-77
2021/05/19 00:11:40;;;;;;;7.63;3.80;;;358.60;2252.80;;;;;;5004110;28;20028;-77
2021/05/19 00:14:07;;;;;;;8.13;3.83;;;358.50;2278.40;;;;;;5011927;28;20366;-78
2021/05/19 00:16:33;;;;;;;8.27;3.50;;;358.50;2278.40;;;;;;5012112;28;20120;-77
2021/05/19 00:18:59;;;;;;;8.35;3.67;;;358.50;2278.40;;;;;;5012057;28;20498;-77
2021/05/19 00:21:25;;;;;;;5.63;3.35;;;358.50;2278.40;;;;;;5012039;28;20075;-77
2021/05/19 00:23:51;;;;;;;7.70;3.60;;;358.60;2252.80;;;;;;5011843;28;20020;-78
2021/05/19 00:26:17;;;;;;;8.40;4.40;;;358.50;2278.40;;;;;;5012542;28;20022;-78
2021/05/19 00:28:45;;;;;;;9.00;4.57;;;358.50;2278.40;;;;;;5012744;28;20022;-77
2021/05/19 00:31:11;;;;;;;12.50;5.93;;;358.60;2278.40;;;;;;5012687;28;20018;-78
2021/05/19 00:33:37;;;;;;;7.10;3.92;;;358.60;2252.80;;;;;;4995118;28;20029;-78
2021/05/19 00:36:04;;;;;;;7.82;3.58;;;358.70;2252.80;;;;;;5012184;28;20041;-78
2021/05/19 00:38:31;;;;;;;11.40;3.63;;;358.80;2227.20;;;;;;5012432;28;20034;-78
2021/05/19 00:40:57;;;;;;;12.48;4.10;;;358.80;2252.80;;;;;;5012324;28;20080;-78
2021/05/19 00:43:24;;;;;;;6.90;3.80;;;358.80;2252.80;;;;;;5012388;28;20021;-78
2021/05/19 00:45:50;;;;;;;7.28;3.67;;;358.80;2278.40;;;;;;5012237;28;20101;-78
2021/05/19 00:48:16;;;;;;;8.10;3.78;;;358.80;2278.40;;;;;;5009541;28;20022;-77
2021/05/19 00:50:42;;;;;;;11.68;3.40;;;358.70;2304.00;;;;;;5012210;28;20025;-76
2021/05/19 00:53:08;;;;;;;9.32;3.60;;;358.80;2304.00;;;;;;5012099;28;20022;-78
2021/05/19 00:55:34;;;;;;;12.98;4.43;;;358.70;2304.00;;;;;;5011800;28;20026;-78
2021/05/19 00:58:00;;;;;;;24.95;14.02;;;358.80;2304.00;;;;;;5012280;28;20030;-78
2021/05/19 01:00:27;;;;;;;16.80;7.38;;;358.80;2304.00;;;;;;5011903;28;20519;-78
2021/05/19 01:02:54;;;;;;;14.57;7.63;;;358.80;2278.40;;;;;;4994246;28;20030;-77
2021/05/19 01:10:42;;;;;;;8.52;4.03;;;358.80;2252.80;;;;;;5009895;28;20033;-77
2021/05/19 01:13:08;;;;;;;16.08;3.55;;;358.80;2252.80;;;;;;5011979;28;20053;-77
2021/05/19 01:15:35;;;;;;;10.93;4.63;;;358.90;2252.80;;;;;;5011454;28;20061;-77
2021/05/19 01:18:03;;;;;;;11.55;5.30;;;358.90;2278.40;;;;;;5011624;28;20426;-77
2021/05/19 01:20:29;;;;;;;10.40;5.60;;;358.80;2278.40;;;;;;4994084;28;20025;-77
2021/05/19 01:22:55;;;;;;;8.63;4.38;;;358.90;2278.40;;;;;;5010472;28;20030;-78
2021/05/19 01:25:21;;;;;;;8.60;4.82;;;358.80;2252.80;;;;;;5011674;28;20382;-78
2021/05/19 01:27:59;;;;;;;8.15;4.93;;;358.70;2278.40;;;;;;5011714;28;20025;-78
2021/05/19 01:30:26;;;;;;;8.65;5.40;;;358.70;2278.40;;;;;;4992532;28;20109;-78
2021/05/19 01:32:52;;;;;;;7.63;4.28;;;358.60;2278.40;;;;;;5011454;28;20026;-78
2021/05/19 01:35:18;;;;;;;6.57;4.15;;;358.70;2278.40;;;;;;5008849;28;20382;-78
2021/05/19 01:37:45;;;;;;;10.38;3.65;;;358.70;2278.40;;;;;;5011420;28;20044;-78
2021/05/19 01:40:17;;;;;;;7.80;3.65;;;358.80;2252.80;;;;;;5011368;28;20023;-78
2021/05/19 01:42:48;;;;;;;7.45;3.90;;;358.70;2252.80;;;;;;5011351;28;20030;-77
2021/05/19 01:45:16;;;;;;;6.68;4.00;;;358.80;2252.80;;;;;;5011010;28;20050;-77
2021/05/19 01:47:51;;;;;;;6.28;3.58;;;358.80;2252.80;;;;;;5011491;28;20100;-77
2021/05/19 01:50:25;;;;;;;6.53;3.50;;;358.80;2278.40;;;;;;5011013;28;20131;-77
2021/05/19 01:52:54;;;;;;;7.10;3.75;;;358.80;2252.80;;;;;;5011467;28;20018;-77
2021/05/19 01:55:21;;;;;;;6.93;3.50;;;358.70;2252.80;;;;;;5011379;28;20037;-76
2021/05/19 01:57:49;;;;;;;7.55;3.83;;;358.50;2304.00;;;;;;5009578;28;20382;-77
2021/05/19 02:00:16;;;;;;;7.35;4.10;;;358.40;2304.00;;;;;;5011466;28;20030;-77
2021/05/19 02:02:43;;;;;;;10.52;4.03;;;358.40;2304.00;;;;;;5011052;28;20018;-78
2021/05/19 02:05:12;;;;;;;8.88;3.55;;;358.40;2278.40;;;;;;5011458;28;20022;-77
2021/05/19 02:07:39;;;;;;;6.35;4.00;;;358.40;2304.00;;;;;;5010908;28;20026;-77
2021/05/19 02:10:09;;;;;;;9.20;4.22;;;333.70;2304.00;;;;;;5011298;28;20018;-79
2021/05/19 02:12:35;;;;;;;8.20;3.88;;;333.70;2304.00;;;;;;4993735;28;20041;-78
2021/05/19 02:15:01;;;;;;;8.55;4.32;;;333.70;2304.00;;;;;;5011170;28;20018;-77
2021/05/19 02:17:28;;;;;;;11.80;4.28;;;333.60;2329.60;;;;;;5011242;28;20120;-77
2021/05/19 02:19:54;;;;;;;6.15;3.70;;;333.60;2329.60;;;;;;5010297;28;20018;-78
2021/05/19 02:22:20;;;;;;;8.93;4.10;;;333.40;2329.60;;;;;;5011269;28;20416;-78
2021/05/19 02:24:46;;;;;;;6.85;4.63;;;333.40;2329.60;;;;;;5010722;28;20421;-77
2021/05/19 02:27:12;;;;;;;8.60;4.20;;;333.40;2329.60;;;;;;5011041;28;20022;-78
2021/05/19 02:29:38;;;;;;;9.95;4.63;;;333.40;2329.60;;;;;;4992621;28;20512;-77
2021/05/19 02:32:04;;;;;;;8.23;4.40;;;333.40;2329.60;;;;;;5010982;28;20022;-78
2021/05/19 02:34:30;;;;;;;7.05;4.38;;;333.20;2329.60;;;;;;5010678;28;20045;-77
2021/05/19 02:36:55;;;;;;;7.65;5.05;;;333.00;2329.60;;;;;;4995376;28;20498;-75
2021/05/19 02:39:21;;;;;;;9.43;4.07;;;332.90;2329.60;;;;;;5014704;28;20052;-76
2021/05/19 02:41:47;;;;;;;6.85;4.55;;;332.90;2329.60;;;;;;5014411;28;20022;-76
2021/05/19 02:44:13;;;;;;;15.30;5.03;;;333.00;2329.60;;;;;;5015005;28;20018;-77
2021/05/19 02:46:39;;;;;;;12.68;4.97;;;332.90;2329.60;;;;;;5014370;28;20072;-77
2021/05/19 02:49:05;;;;;;;10.45;4.85;;;332.80;2329.60;;;;;;5014923;28;20014;-77
2021/05/19 02:51:32;;;;;;;10.30;5.22;;;308.10;2304.00;;;;;;5015008;28;20042;-77
2021/05/19 02:53:59;;;;;;;8.90;4.63;;;308.00;2304.00;;;;;;5014486;28;20018;-77
2021/05/19 02:56:25;;;;;;;12.77;4.55;;;307.90;2304.00;;;;;;5014376;28;20108;-77
2021/05/19 02:58:52;;;;;;;9.13;3.13;;;307.90;2304.00;;;;;;5014344;28;20022;-77
2021/05/19 03:01:19;;;;;;;8.15;4.03;;;307.90;2304.00;;;;;;5014403;28;20034;-78
2021/05/19 03:03:45;;;;;;;9.18;3.47;;;332.80;2329.60;;;;;;5014234;28;20028;-76
2021/05/19 03:06:11;;;;;;;7.82;3.83;;;307.90;2304.00;;;;;;5014383;28;20100;-77
2021/05/19 03:08:37;;;;;;;8.75;3.22;;;307.90;2304.00;;;;;;5013895;28;20036;-77
2021/05/19 03:11:03;;;;;;;12.00;3.67;;;307.80;2304.00;;;;;;5014360;28;20073;-78
2021/05/19 03:13:29;;;;;;;11.18;4.40;;;308.00;2304.00;;;;;;5014216;28;20025;-77
2021/05/19 03:15:55;;;;;;;12.95;4.13;;;332.80;2329.60;;;;;;5014565;28;20446;-77
2021/05/19 03:18:21;;;;;;;12.10;4.93;;;333.00;2329.60;;;;;;5014323;28;20105;-77
2021/05/19 03:20:47;;;;;;;5.78;3.55;;;333.20;2329.60;;;;;;5014513;28;20077;-77
2021/05/19 03:23:13;;;;;;;7.15;4.15;;;333.20;2329.60;;;;;;5013470;28;20018;-78
2021/05/19 03:25:39;;;;;;;12.80;4.50;;;333.30;2329.60;;;;;;5014247;28;20483;-77
2021/05/19 03:28:05;;;;;;;10.13;4.38;;;333.30;2329.60;;;;;;5013799;28;20093;-77
2021/05/19 03:30:31;;;;;;;18.48;5.45;;;333.30;2329.60;;;;;;5013743;28;20026;-78
2021/05/19 03:32:57;;;;;;;12.13;4.82;;;333.50;2329.60;;;;;;5013913;28;20026;-77
2021/05/19 03:35:23;;;;;;;18.35;5.00;;;333.40;2329.60;;;;;;4994485;28;20029;-77
2021/05/19 03:37:49;;;;;;;9.80;4.00;;;333.40;2329.60;;;;;;5013132;28;20052;-77
2021/05/19 03:40:15;;;;;;;10.52;4.72;;;333.60;2329.60;;;;;;4995521;28;20794;-76
2021/05/19 03:42:42;;;;;;;9.88;4.88;;;333.50;2329.60;;;;;;5013910;28;20026;-77
2021/05/19 03:45:10;;;;;;;8.00;4.47;;;358.40;2329.60;;;;;;5008921;28;20022;-76
2021/05/19 03:47:36;;;;;;;10.75;4.45;;;333.70;2329.60;;;;;;4993819;28;20359;-77
2021/05/19 03:50:03;;;;;;;13.60;5.10;;;358.50;2329.60;;;;;;4995061;28;20116;-78
2021/05/19 03:52:33;;;;;;;8.80;4.70;;;358.50;2329.60;;;;;;5013209;28;20033;-77
2021/05/19 03:54:59;;;;;;;12.43;5.47;;;358.50;2329.60;;;;;;5013785;28;20060;-78
2021/05/19 03:57:25;;;;;;;10.98;5.20;;;358.60;2329.60;;;;;;5013510;28;20026;-78
2021/05/19 03:59:51;;;;;;;11.45;4.82;;;358.60;2329.60;;;;;;5013146;28;20022;-78
2021/05/19 04:02:17;;;;;;;13.88;6.03;;;358.60;2329.60;;;;;;5013347;28;20018;-78
2021/05/19 04:04:42;;;;;;;15.27;6.47;;;358.70;2329.60;;;;;;5013732;28;20497;-78
2021/05/19 04:07:10;;;;;;;15.85;5.13;;;358.70;2329.60;;;;;;5013307;28;20072;-78
2021/05/19 04:09:36;;;;;;;14.13;5.22;;;358.70;2329.60;;;;;;5013453;28;20049;-78
2021/05/19 04:12:03;;;;;;;17.98;6.30;;;358.70;2329.60;;;;;;5013196;28;20061;-78
2021/05/19 04:14:28;;;;;;;16.13;5.82;;;358.60;2329.60;;;;;;5012718;28;20052;-77
2021/05/19 04:16:54;;;;;;;9.55;5.50;;;358.60;2329.60;;;;;;5013201;28;20069;-78
2021/05/19 04:19:20;;;;;;;17.25;5.70;;;358.60;2329.60;;;;;;5013130;28;20105;-78
2021/05/19 04:21:46;;;;;;;12.65;5.63;;;358.70;2329.60;;;;;;5013290;28;20038;-78
2021/05/19 04:24:11;;;;;;;18.42;6.30;;;358.80;2329.60;;;;;;4994849;28;20105;-78
2021/05/19 04:26:37;;;;;;;22.52;6.15;;;358.80;2329.60;;;;;;5013109;28;20029;-77
2021/05/19 04:29:04;;;;;;;16.55;6.13;;;358.80;2329.60;;;;;;4995188;28;20072;-76
2021/05/19 04:31:30;;;;;;;11.82;5.38;;;358.80;2329.60;;;;;;5012923;28;20029;-75
2021/05/19 04:33:56;;;;;;;17.77;5.53;;;358.80;2329.60;;;;;;5012817;28;20018;-75
2021/05/19 04:36:22;;;;;;;11.85;5.78;;;358.90;2329.60;;;;;;5013020;28;20046;-75
2021/05/19 04:38:48;;;;;;;11.68;5.45;;;358.90;2329.60;;;;;;5012702;28;20171;-74
2021/05/19 04:41:14;;;;;;;15.35;5.82;;;359.00;2329.60;;;;;;5012783;28;20025;-74
2021/05/19 04:43:40;;;;;;;9.65;5.82;;;359.00;2329.60;;;;;;5012316;28;20038;-75
2021/05/19 04:46:06;;;;;;;14.98;6.70;;;359.10;2329.60;;;;;;5012745;28;20107;-75
2021/05/19 04:48:32;;;;;;;8.05;5.32;;;359.20;2304.00;;;;;;5012653;28;20160;-76
2021/05/19 04:50:57;;;;;;;12.20;5.63;;;359.20;2278.40;;;;;;5012809;28;20024;-74
2021/05/19 04:53:23;;;;;;;12.00;5.50;;;359.20;2252.80;;;;;;5013003;28;20790;-75
2021/05/19 04:55:49;;;;;;;9.00;5.30;;;359.20;2252.80;;;;;;5012307;28;20024;-74
2021/05/19 04:58:15;;;;;;;14.55;5.28;;;359.10;2304.00;;;;;;5012743;28;20030;-74
2021/05/19 05:00:41;;;;;;;13.20;5.40;;;359.10;2329.60;;;;;;5012371;28;20450;-74
2021/05/19 05:03:08;;;;;;;7.78;4.25;;;359.20;2278.40;;;;;;5012397;28;20117;-74
2021/05/19 05:05:34;;;;;;;13.63;5.43;;;359.30;2252.80;;;;;;5012141;28;20470;-75
2021/05/19 05:08:00;;;;;;;14.85;4.88;;;384.00;2252.80;;;;;;5006700;28;20026;-75
2021/05/19 05:10:26;;;;;;;12.85;6.28;;;384.10;2252.80;;;;;;5004478;28;20037;-75
2021/05/19 05:12:51;;;;;;;18.95;8.43;;;384.00;2278.40;;;;;;4993914;28;20026;-75
2021/05/19 05:15:18;;;;;;;14.35;9.73;;;359.20;2304.00;;;;;;5012390;28;20018;-76
2021/05/19 05:17:44;;;;;;;16.27;9.13;;;359.30;2304.00;;;;;;5011883;28;20033;-74
2021/05/19 05:20:11;;;;;;;12.48;7.43;;;384.00;2252.80;;;;;;5012459;28;20026;-75
2021/05/19 05:22:37;;;;;;;13.48;6.50;;;384.20;2227.20;;;;;;5011967;28;20349;-75
2021/05/19 05:25:05;;;;;;;9.40;5.93;;;384.30;2201.60;;;;;;5006021;28;20026;-75
2021/05/19 05:27:30;;;;;;;6.53;4.35;;;384.40;2227.20;;;;;;5004786;28;20026;-74
2021/05/19 05:29:57;;;;;;;8.07;4.60;;;384.50;2201.60;;;;;;5011948;28;20025;-75
2021/05/19 05:32:23;;;;;;;12.40;5.68;;;384.60;2176.00;;;;;;5012150;28;20033;-75
2021/05/19 05:34:49;;;;;;;9.00;5.05;;;384.60;2176.00;;;;;;5012020;28;20060;-75
2021/05/19 05:37:15;;;;;;;14.25;5.35;;;384.60;2201.60;;;;;;5011567;28;20097;-74
2021/05/19 05:39:40;;;;;;;13.68;5.95;;;384.60;2201.60;;;;;;5011500;28;20062;-75
2021/05/19 05:42:06;;;;;;;12.73;4.97;;;384.50;2278.40;;;;;;5011983;28;20026;-74
2021/05/19 05:44:33;;;;;;;9.45;5.28;;;384.70;2201.60;;;;;;5011762;28;20481;-75
2021/05/19 05:46:58;;;;;;;6.82;5.07;;;384.70;2201.60;;;;;;5011828;28;20022;-75
2021/05/19 05:49:24;;;;;;;14.07;5.40;;;384.70;2201.60;;;;;;5011885;28;20024;-75
2021/05/19 05:51:50;;;;;;;13.60;6.15;;;384.70;2227.20;;;;;;5012222;28;20119;-75
2021/05/19 05:54:16;;;;;;;12.07;5.25;;;384.80;2227.20;;;;;;5011689;28;20025;-75
2021/05/19 05:56:42;;;;;;;10.77;5.72;;;384.60;2252.80;;;;;;5011649;28;20038;-75
2021/05/19 05:59:08;;;;;;;20.38;6.53;;;384.50;2252.80;;;;;;5011584;28;20351;-76
2021/05/19 06:01:35;;;;;;;18.15;6.53;;;384.60;2252.80;;;;;;5011988;28;20024;-75
2021/05/19 06:04:00;;;;;;;10.93;5.60;;;384.80;2176.00;;;;;;5011611;28;20072;-75
2021/05/19 06:06:26;;;;;;;10.73;5.25;;;409.60;2227.20;;;;;;5012000;28;20405;-75
2021/05/19 06:08:52;;;;;;;12.13;5.63;;;409.60;2227.20;;;;;;5012131;28;20038;-75
2021/05/19 06:11:18;;;;;;;13.82;6.93;;;409.60;2150.40;;;;;;5013197;28;20487;-75
2021/05/19 06:13:44;;;;;;;15.60;6.22;;;409.60;2201.60;;;;;;5016373;28;20026;-75
2021/05/19 06:16:09;;;;;;;15.85;6.60;;;409.70;2176.00;;;;;;5014983;28;20061;-75
2021/05/19 06:18:35;;;;;;;11.98;5.13;;;409.80;2124.80;;;;;;5013415;28;20091;-74
2021/05/19 06:21:01;;;;;;;13.68;6.53;;;409.80;2150.40;;;;;;5015055;28;20028;-75
2021/05/19 06:23:27;;;;;;;11.95;6.15;;;409.90;2124.80;;;;;;5015541;28;20054;-74
2021/05/19 06:25:53;;;;;;;15.73;5.65;;;410.00;2150.40;;;;;;5014838;28;20085;-75
2021/05/19 06:28:18;;;;;;;13.65;6.03;;;410.00;2150.40;;;;;;5015249;28;20029;-75
2021/05/19 06:30:44;;;;;;;11.70;6.13;;;410.00;2099.20;;;;;;5015089;28;20058;-75
2021/05/19 06:33:10;;;;;;;15.70;6.07;;;410.00;2099.20;;;;;;5014857;28;20117;-74
2021/05/19 06:35:36;;;;;;;11.77;6.40;;;410.20;2124.80;;;;;;5014452;28;20164;-76
2021/05/19 06:38:02;;;;;;;13.93;6.63;;;410.30;2073.60;;;;;;5014821;28;20539;-74
2021/05/19 06:40:28;;;;;;;12.18;6.03;;;410.50;2048.00;;;;;;5015096;28;20026;-72
2021/05/19 06:42:53;;;;;;;11.00;6.43;;;410.40;2048.00;;;;;;5014406;28;20489;-74
2021/05/19 06:45:20;;;;;;;12.93;5.68;;;410.50;2022.40;;;;;;5015034;28;20026;-75
2021/05/19 06:47:45;;;;;;;9.60;5.00;;;410.30;2048.00;;;;;;5014793;28;20022;-72
2021/05/19 06:50:11;;;;;;;9.18;4.85;;;410.40;2022.40;;;;;;5015094;28;20040;-73
2021/05/19 06:52:37;;;;;;;8.68;4.75;;;410.50;1996.80;;;;;;5014615;28;20018;-73
2021/05/19 06:55:06;;;;;;;6.90;4.55;;;435.20;1996.80;;;;;;5014927;28;20026;-73
2021/05/19 06:57:32;;;;;;;8.02;4.95;;;435.30;1971.20;;;;;;5014198;28;20037;-74
2021/05/19 06:59:58;;;;;;;10.20;5.00;;;435.30;1971.20;;;;;;5014680;28;20058;-73
2021/05/19 07:02:24;;;;;;;8.70;4.53;;;435.30;1945.60;;;;;;5014684;28;20461;-74
2021/05/19 07:04:49;;;;;;;7.97;4.28;;;435.30;1971.20;;;;;;5014493;28;20037;-74
2021/05/19 07:07:15;;;;;;;8.32;4.25;;;435.30;1894.40;;;;;;5014744;28;20033;-75
2021/05/19 07:09:41;;;;;;;8.93;3.45;;;435.50;1868.80;;;;;;5014335;28;20026;-74
2021/05/19 07:12:08;;;;;;;8.90;3.63;;;435.50;1817.60;;;;;;5014373;28;20422;-74
2021/05/19 07:14:35;;;;;;;5.00;3.20;;;435.50;1843.20;;;;;;5014199;28;20442;-74
2021/05/19 07:17:01;;;;;;;8.30;4.00;;;435.60;1817.60;;;;;;5014395;28;20502;-73
2021/05/19 07:19:28;;;;;;;6.75;3.88;;;435.60;1920.00;;;;;;5014381;28;20105;-72
2021/05/19 07:21:53;;;;;;;8.00;3.72;;;435.60;1894.40;;;;;;5014166;28;20022;-72
2021/05/19 07:24:19;;;;;;;12.30;4.38;;;435.70;1868.80;;;;;;5014126;28;20125;-73
2021/05/19 07:26:49;;;;;;;7.18;4.30;;;435.80;1843.20;;;;;;5013972;28;20472;-73
2021/05/19 07:29:16;;;;;;;10.63;4.10;;;435.80;1817.60;;;;;;5014386;28;20123;-73
2021/05/19 07:31:41;;;;;;;7.00;3.75;;;435.80;1792.00;;;;;;5013838;28;20045;-72
2021/05/19 07:34:08;;;;;;;9.95;4.15;;;435.80;1792.00;;;;;;5014313;28;20063;-74
2021/05/19 07:36:34;;;;;;;7.47;3.53;;;435.90;1792.00;;;;;;5013782;28;20489;-74
2021/05/19 07:39:00;;;;;;;7.95;4.72;;;435.80;1740.80;;;;;;5014213;28;20030;-74
2021/05/19 07:41:27;;;;;;;5.82;3.97;;;436.00;1766.40;;;;;;5013748;28;20390;-74
2021/05/19 07:43:53;;;;;;;7.07;3.95;;;435.80;1792.00;;;;;;5013817;28;20021;-74
2021/05/19 07:46:19;;;;;;;7.03;4.03;;;435.90;1792.00;;;;;;5013789;28;20026;-74
2021/05/19 07:48:45;;;;;;;6.95;4.05;;;435.90;1766.40;;;;;;5011478;28;20500;-74
2021/05/19 07:51:11;;;;;;;8.25;4.32;;;435.90;1792.00;;;;;;5001794;28;20022;-74
2021/05/19 07:53:37;;;;;;;11.10;4.30;;;436.10;1766.40;;;;;;5013742;28;20053;-74
2021/05/19 07:58:35;;;;;;;7.10;4.35;;;436.10;1715.20;;;;;;5013744;28;20080;-74
2021/05/19 08:01:12;;;;;;;8.27;4.43;;;436.10;1715.20;;;;;;5013684;28;20016;-74
2021/05/19 08:03:38;;;;;;;11.98;4.75;;;436.10;1817.60;;;;;;5013470;28;20065;-74
2021/05/19 08:06:05;;;;;;;8.23;4.50;;;436.10;1843.20;;;;;;5013456;28;20053;-74
2021/05/19 08:08:30;;;;;;;8.52;4.07;;;436.10;1843.20;;;;;;5013861;28;20035;-75
2021/05/19 08:10:56;;;;;;;6.15;3.65;;;436.10;1868.80;;;;;;5013380;28;20030;-74
2021/05/19 08:13:22;;;;;;;9.30;4.03;;;436.10;1894.40;;;;;;5013412;28;20022;-75
2021/05/19 08:15:48;;;;;;;6.97;3.63;;;435.90;1920.00;;;;;;5013000;28;20482;-74
2021/05/19 08:18:14;;;;;;;5.53;3.60;;;436.10;1868.80;;;;;;5007278;28;20125;-74
2021/05/19 08:20:39;;;;;;;6.50;3.75;;;436.00;1817.60;;;;;;5005624;28;20385;-75
2021/05/19 08:23:06;;;;;;;6.93;4.35;;;436.10;1868.80;;;;;;5013423;28;20026;-75
2021/05/19 08:25:32;;;;;;;11.10;5.25;;;435.90;1894.40;;;;;;5011936;28;20022;-76
2021/05/19 08:27:57;;;;;;;6.25;3.97;;;435.90;1920.00;;;;;;5013857;28;20087;-77
2021/05/19 08:30:24;;;;;;;10.05;5.07;;;435.90;1920.00;;;;;;5013074;28;20025;-76
2021/05/19 08:32:52;;;;;;;8.65;4.78;;;435.90;1945.60;;;;;;5011923;28;20030;-76
2021/05/19 08:35:18;;;;;;;6.63;4.00;;;435.90;1894.40;;;;;;5012262;28;20460;-78
2021/05/19 08:37:44;;;;;;;6.57;4.65;;;435.90;1894.40;;;;;;5012322;28;20129;-77
2021/05/19 08:40:10;;;;;;;13.27;4.70;;;435.80;1920.00;;;;;;5013113;28;20140;-77
2021/05/19 08:42:37;;;;;;;11.55;4.80;;;435.80;1920.00;;;;;;5012593;28;20026;-76
2021/05/19 08:45:04;;;;;;;8.48;4.45;;;435.80;1971.20;;;;;;5012439;28;20032;-75
2021/05/19 08:47:30;;;;;;;8.20;4.60;;;435.70;1945.60;;;;;;5012518;28;20022;-77
2021/05/19 08:49:56;;;;;;;9.48;4.95;;;435.70;1945.60;;;;;;5013154;28;20029;-77
2021/05/19 08:52:22;;;;;;;12.15;4.65;;;435.70;1996.80;;;;;;5012426;28;20049;-79
2021/05/19 08:54:50;;;;;;;9.00;4.95;;;435.70;1971.20;;;;;;5012723;28;20888;-77
2021/05/19 08:57:17;;;;;;;11.00;5.07;;;435.60;2022.40;;;;;;5012134;28;20025;-75
2021/05/19 08:59:44;;;;;;;10.32;4.57;;;435.50;2201.60;;;;;;5012507;28;20021;-75
2021/05/19 09:02:12;;;;;;;9.20;4.63;;;435.50;2124.80;;;;;;5012446;28;20359;-75
2021/05/19 09:04:38;;;;;;;9.75;4.35;;;435.50;2124.80;;;;;;5000757;28;20033;-76
2021/05/19 09:07:05;;;;;;;11.07;5.70;;;435.50;2227.20;;;;;;5012629;28;20037;-77
2021/05/19 09:09:38;;;;;;;12.13;5.75;;;435.40;2329.60;;;;;;5010820;28;20044;-76
2021/05/19 09:12:09;;;;;;;10.95;5.45;;;435.30;2201.60;;;;;;4994697;28;20026;-76
2021/05/19 09:14:40;;;;;;;13.40;5.72;;;435.40;2252.80;;;;;;5012303;28;20419;-77
2021/05/19 09:17:14;;;;;;;10.05;5.10;;;435.30;2355.20;;;;;;5012422;28;20038;-76
2021/05/19 09:19:41;;;;;;;7.25;5.00;;;435.30;2227.20;;;;;;5012128;28;20037;-76
2021/05/19 09:22:26;;;;;;;9.02;5.60;;;435.20;2252.80;;;;;;5012045;28;20025;-76
2021/05/19 09:24:53;;;;;;;9.00;5.25;;;410.20;2329.60;;;;;;5010883;28;20474;-76
2021/05/19 09:27:19;;;;;;;8.15;4.88;;;410.10;2329.60;;;;;;5011992;28;20034;-76
2021/05/19 09:29:50;;;;;;;11.52;5.38;;;410.00;2304.00;;;;;;5011349;28;20014;-76
2021/05/19 09:32:18;;;;;;;9.68;4.90;;;410.00;2329.60;;;;;;5012193;28;20029;-76
2021/05/19 09:34:50;;;;;;;9.60;5.45;;;409.90;2304.00;;;;;;5011620;28;20106;-76
2021/05/19 09:37:30;;;;;;;9.00;4.97;;;409.90;2355.20;;;;;;5011435;28;20054;-76
2021/05/19 09:40:01;;;;;;;10.23;6.10;;;410.10;2355.20;;;;;;5011379;28;20018;-76
2021/05/19 09:42:46;;;;;;;9.35;6.25;;;409.80;2355.20;;;;;;5011896;28;20014;-76
2021/05/19 09:45:23;;;;;;;14.70;6.15;;;409.90;2355.20;;;;;;5011790;28;20105;-76
2021/05/19 09:47:54;;;;;;;9.05;6.82;;;410.00;2355.20;;;;;;5011961;28;20417;-76
2021/05/19 09:50:32;;;;;;;10.90;5.22;;;410.00;2355.20;;;;;;5011669;28;20022;-76
2021/05/19 09:53:04;;;;;;;8.18;5.28;;;410.00;2355.20;;;;;;5012112;28;20029;-76
2021/05/19 09:55:30;;;;;;;9.70;5.82;;;409.80;2355.20;;;;;;5011489;28;20030;-76
2021/05/19 09:57:55;;;;;;;8.38;5.15;;;409.70;2355.20;;;;;;4993875;28;20053;-76
2021/05/19 10:00:26;;;;;;;9.80;5.63;;;409.80;2355.20;;;;;;5011630;28;20355;-78
2021/05/19 10:02:53;;;;;;;13.13;6.85;;;409.80;2355.20;;;;;;5011491;28;20022;-76
2021/05/19 10:05:25;;;;;;;11.27;7.43;;;409.70;2355.20;;;;;;5011031;28;20037;-77
2021/05/19 10:07:53;;;;;;;12.20;7.88;;;409.60;2355.20;;;;;;5010359;28;20034;-76
2021/05/19 10:10:19;;;;;;;13.70;7.80;;;409.70;2355.20;;;;;;5011944;28;20084;-76
2021/05/19 10:12:46;;;;;;;14.13;8.63;;;409.70;2355.20;;;;;;5011259;28;20029;-76
2021/05/19 10:15:17;;;;;;;14.15;7.85;;;409.80;2355.20;;;;;;5011955;28;20034;-75
2021/05/19 10:17:47;;;;;;;14.52;8.60;;;409.80;2355.20;;;;;;5011489;28;20497;-75
2021/05/19 10:20:25;;;;;;;19.25;9.52;;;409.70;2355.20;;;;;;5010821;28;20022;-77
2021/05/19 10:22:52;;;;;;;20.90;11.27;;;409.60;2355.20;;;;;;5009124;28;20022;-76
2021/05/19 10:25:38;;;;;;;21.27;10.73;;;384.90;2329.60;;;;;;5009355;28;20018;-77
2021/05/19 10:28:08;;;;;;;18.52;10.95;;;384.70;2329.60;;;;;;5009108;28;20010;-75
2021/05/19 10:30:58;;;;;;;11.82;7.30;;;384.80;2329.60;;;;;;5009766;28;20030;-75
2021/05/19 10:33:27;;;;;;;10.52;7.15;;;384.80;2329.60;;;;;;5009684;28;20041;-75
2021/05/19 10:35:56;;;;;;;10.30;7.65;;;384.90;2329.60;;;;;;5009632;28;20513;-75
2021/05/19 10:38:33;;;;;;;13.80;8.50;;;384.70;2329.60;;;;;;5011079;28;20061;-76
2021/05/19 10:41:01;;;;;;;11.63;7.70;;;384.70;2329.60;;;;;;5011163;28;20029;-75
2021/05/19 10:43:47;;;;;;;11.48;6.30;;;384.70;2329.60;;;;;;5011139;28;20017;-75
2021/05/19 10:46:14;;;;;;;14.48;9.00;;;384.60;2329.60;;;;;;5000372;28;20022;-75
2021/05/19 10:48:40;;;;;;;15.95;9.93;;;384.40;2329.60;;;;;;5010960;28;20057;-75
2021/05/19 10:51:58;;;;;;;11.65;6.68;;;384.60;2329.60;;;;;;5011552;28;20021;-75
2021/05/19 10:57:41;;;;;;;8.18;4.07;;;384.60;2329.60;;;;;;5011945;28;20226;-74
2021/05/19 11:00:18;;;;;;;5.28;2.20;;;384.60;2329.60;;;;;;4913697;29;20059;-75
2021/05/19 11:02:53;;;;;;;8.48;2.13;;;384.60;2329.60;;;;;;4909506;29;20036;-74
2021/05/19 11:05:30;;;;;;;5.45;2.60;;;384.70;2329.60;;;;;;4926308;29;20213;-75
2021/05/19 11:08:08;;;;;;;5.05;1.63;;;384.70;2329.60;;;;;;4916796;29;20120;-74
2021/05/19 11:10:36;;;;;;;2.67;1.80;;;384.70;2329.60;;;;;;4915129;29;20496;-74
2021/05/19 11:13:03;;;;;;;2.45;1.55;;;384.70;2329.60;;;;;;4915402;29;20472;-74
2021/05/19 11:16:06;;;;;;;3.58;1.60;;;384.80;2329.60;;;;;;4913423;29;20028;-75
2021/05/19 11:21:23;;;;;;;2.47;1.58;;;409.70;2355.20;;;;;;4913854;29;20075;-75
2021/05/19 11:24:25;;;;;;;3.38;1.77;;;409.70;2355.20;;;;;;4914028;29;20035;-77
2021/05/19 11:26:50;;;;;;;3.95;2.00;;;409.90;2355.20;;;;;;4896508;29;20041;-75
2021/05/19 11:29:16;;;;;;;4.43;2.00;;;410.20;2355.20;;;;;;4896455;29;20059;-76
2021/05/19 11:31:47;;;;;;;3.20;1.80;;;410.20;2355.20;;;;;;4891773;29;20052;-75
2021/05/19 11:34:15;;;;;;;6.90;2.30;;;410.30;2355.20;;;;;;4896253;29;20164;-76
2021/05/19 11:36:42;;;;;;;8.05;1.70;;;410.30;2355.20;;;;;;4985185;28;20141;-76
2021/05/19 11:39:30;;;;;;;2.55;1.75;;;410.40;2355.20;;;;;;5003940;28;20033;-76
2021/05/19 11:42:15;;;;;;;1.85;1.33;;;410.40;2355.20;;;;;;5000240;28;20035;-74
2021/05/19 11:44:49;;;;;;;3.72;1.52;;;410.50;2355.20;;;;;;5002223;28;20053;-75
2021/05/19 11:47:20;;;;;;;2.05;1.17;;;435.20;2355.20;;;;;;5011595;28;20026;-74
2021/05/19 11:49:46;;;;;;;4.32;1.63;;;435.20;2304.00;;;;;;5011683;28;20169;-75
2021/05/19 11:52:12;;;;;;;3.05;1.50;;;435.20;2329.60;;;;;;5011680;28;20525;-75
2021/05/19 11:54:42;;;;;;;3.28;1.35;;;410.50;2304.00;;;;;;5003968;28;20033;-75
2021/05/19 11:57:10;;;;;;;3.38;1.42;;;435.20;2329.60;;;;;;5006259;28;20050;-75
2021/05/19 11:59:38;;;;;;;3.90;1.63;;;435.20;2355.20;;;;;;5011454;28;20172;-76
2021/05/19 12:02:07;;;;;;;4.45;1.80;;;435.20;2329.60;;;;;;5011949;28;20547;-73
2021/05/19 12:04:36;;;;;;;4.65;2.03;;;435.30;2252.80;;;;;;5010710;28;20025;-76
2021/05/19 12:07:05;;;;;;;2.78;1.63;;;435.30;2355.20;;;;;;5002782;28;20026;-75
2021/05/19 12:09:37;;;;;;;4.35;1.98;;;435.30;2355.20;;;;;;5012147;28;20083;-76
2021/05/19 12:12:11;;;;;;;4.03;1.83;;;435.40;2355.20;;;;;;5012993;28;20022;-75
2021/05/19 12:14:55;;;;;;;3.40;1.73;;;435.50;2355.20;;;;;;5012814;28;20025;-75
2021/05/19 12:17:24;;;;;;;3.78;1.85;;;435.60;2355.20;;;;;;5013712;28;20041;-75
2021/05/19 12:19:50;;;;;;;4.57;2.20;;;435.70;2329.60;;;;;;5012801;28;20030;-76
2021/05/19 12:22:21;;;;;;;4.80;1.67;;;435.80;2329.60;;;;;;5013099;28;20029;-75
2021/05/19 12:24:51;;;;;;;4.00;1.80;;;435.80;2304.00;;;;;;5013137;28;20091;-77
2021/05/19 12:27:22;;;;;;;4.40;1.95;;;435.80;2304.00;;;;;;5013302;28;20053;-75
2021/05/19 12:29:51;;;;;;;5.60;2.03;;;435.90;2304.00;;;;;;4994832;28;20430;-75
2021/05/19 12:32:23;;;;;;;1.90;1.27;;;435.90;2304.00;;;;;;5012852;28;20474;-79